Aviation Digital Data Service (ADDS)

Output produced by METARs form (1631 UTC 16 June 2019)
found at http://www.aviationweather.gov/metar/data/
 
KHBG 161120Z 1612/1712 21004KT P6SM SKC 
     FM161400 21006KT P6SM SCT050
       
KHDN 161139Z 1612/1712 12008KT P6SM VCSH SCT080 BKN100 
     FM161800 29008KT P6SM FEW060 SCT200 
     FM170300 13006KT P6SM SCT080 BKN150
       
KHIE 161120Z 1612/1712 VRB03KT P6SM SCT020 OVC040 
     FM161300 29004KT P6SM BKN050 OVC090 
     FM170200 00000KT 6SM BR BKN100
       
KHIO 161120Z 1612/1712 00000KT P6SM SKC 
     FM161600 00000KT P6SM SCT025 
     FM161900 33005KT P6SM SKC 
     FM170000 33011KT P6SM SKC 
     FM170800 31004KT P6SM SKC 
     FM171100 00000KT P6SM OVC025
       
KHKS 161355Z 1614/1712 21009KT P6SM BKN050
       
KHKY 161125Z 1612/1712 20007KT P6SM FEW250 
     FM161500 22008KT P6SM FEW050 SCT180 
     FM170100 21005KT P6SM SCT150
       
KHLG 161432Z 1615/1712 23014G20KT P6SM BKN015 
     FM161600 25007KT 6SM -SHRA BKN015 
     FM161700 24007KT P6SM BKN025 
     FM170300 VRB03KT P6SM -SHRA VCTS OVC025CB 
     FM170600 VRB03KT 5SM BR VCSH BKN010
       
KHLN 161120Z 1612/1712 VRB02KT P6SM VCSH FEW060 BKN080 
     FM162000 35009KT P6SM SCT070 BKN100 
     TEMPO 1620/1624 5SM -TSRA BKN060CB 
     FM170000 01009KT P6SM VCSH FEW050 SCT070 
     FM170400 VRB06KT P6SM SCT090
       
TAF KHMN 160901Z 1609/1715 13009KT 9999 FEW150 QNH2992INS 
     BECMG 1617/1618 23012KT 9999 SKC QNH2984INS 
     BECMG 1702/1703 VRB06KT 9999 FEW120 QNH2987INS TX35/1621Z TN17/1612Z
       
KHND 161120Z 1612/1712 19009KT P6SM FEW150 BKN250 
     FM161900 20012G22KT P6SM SCT150 BKN250 
     FM170300 17008KT P6SM FEW150
       
KHOB 161138Z 1612/1712 35011KT P6SM SCT250 
     FM161900 02008KT P6SM SCT250
       
KHON 161130Z 1612/1712 VRB04KT P6SM MIFG SCT250 
     FM161300 32004KT P6SM SCT250 
     FM161800 32007KT P6SM SCT060 
     FM170000 34006KT P6SM BKN070 
     FM170200 VRB03KT P6SM SCT100 
     FM170500 VRB03KT P6SM BKN100
       
TAF KHOP 161600Z 1616/1722 21015G20KT 9999 BKN020 QNH2991INS 
     BECMG 1617/1618 22012KT 9000 -SHRA BKN030 QNH2989INS 
     TEMPO 1620/1701 25015G25KT 6000 -TSRA BKN020CB OVC040 
     BECMG 1702/1703 VRB06KT 8000 BR BKN020 QNH2992INS 
     BECMG 1713/1714 22009KT 9999 NSW BKN030 QNH2998INS 
     BECMG 1715/1716 22012G18KT 9999 BKN030 QNH2996INS TX31/1620Z TN22/1708Z
       
KHOT 161120Z 1612/1712 22010G20KT P6SM VCSH OVC025 
     TEMPO 1612/1614 28015G25KT TSRA OVC050CB 
     FM161600 22009KT P6SM VCTS BKN040CB OVC080 
     TEMPO 1616/1619 TSRA OVC040CB 
     FM162000 22007KT P6SM VCSH OVC050 
     FM170600 18003KT P6SM TSRA OVC025CB
       
KHOU 161500Z 1615/1712 16016G26KT P6SM VCSH SCT030 BKN035 BKN250 
     FM161800 17016G26KT P6SM VCTS SCT030CB SCT060 
     FM162100 15008G18KT P6SM VCSH FEW020 SCT100 
     FM170300 15007KT P6SM SCT018 SCT070
       
KHPN 161401Z 1614/1712 18006KT P6SM VCSH SCT070 BKN100 
     FM161700 19007KT P6SM BKN050 
     FM162100 24006KT 5SM -SHRA BR VCTS BKN040CB 
     FM162300 27006KT P6SM VCSH BKN040 
     FM170300 32004KT P6SM BKN040 BKN100 
     FM171000 35004KT P6SM BKN040 AMD NOT SKED
       
KHQM 161135Z 1612/1712 28006KT P6SM OVC009 
     FM161900 28012KT P6SM OVC015 
     FM170000 28012KT P6SM SCT020 
     FM170500 28006KT P6SM OVC012
       
KHRL 161414Z 1614/1712 16014KT P6SM VCSH SCT035 BKN050 
     TEMPO 1614/1616 -SHRA SCT025 BKN035 
     FM161700 15016G24KT P6SM SCT030 SCT050 
     FM170300 14010G15KT P6SM SCT050
       
KHRO 161120Z 1612/1712 20008G15KT P6SM VCTS OVC060CB 
     TEMPO 1614/1618 -TSRA BKN040CB 
     FM161800 24012KT P6SM -SHRA OVC050 
     FM170600 19005KT P6SM VCTS OVC025CB
       
TAF KHST 161600Z 1616/1722 14009KT 8000 -SHRA VCTS BKN030CB BKN140 QNH2994INS 
     TEMPO 1616/1620 18010G15KT 6000 -TSRA BKN025CB 
     BECMG 1701/1702 12006KT 9999 NSW FEW020 SCT070 BKN160 QNH2995INS 
     BECMG 1711/1712 14009KT 8000 -SHRA BKN020 OVC140 QNH2997INS 
     TEMPO 1712/1716 19012G18KT 4800 -TSRA BKN020CB TX28/1619Z TN23/1710Z
       
KHSV 161512Z 1615/1712 23010G18KT P6SM BKN021 OVC250 
     FM161800 22010G18KT P6SM VCTS SCT040CB SCT250 
     FM162300 20008KT P6SM VCTS SCT040CB SCT250 
     FM170300 19006KT P6SM BKN035 BKN080 OVC200
       
KHTS 161439Z 1615/1712 21010G20KT P6SM VCSH OVC045 
     FM161600 22011G18KT P6SM VCTS OVC045CB 
     TEMPO 1616/1618 4SM -SHRA BR OVC025 
     FM161800 23010KT P6SM BKN045 
     TEMPO 1622/1624 4SM -TSRA OVC030CB 
     FM170000 23007KT P6SM BKN150 
     FM170800 20005KT P6SM BKN100
       
KHUF 161120Z 1612/1712 22005KT P6SM SCT030 
     FM161500 23007KT P6SM VCSH BKN020 
     FM161900 24007KT P6SM VCSH SCT080 
     FM170900 00000KT P6SM OVC025
       
KHUM 161142Z 1612/1712 00000KT P6SM BKN015 
     FM161600 17006KT P6SM FEW040 SCT250 
     FM161800 16008KT P6SM VCTS BKN050CB 
     FM170000 13004KT P6SM SCT250
       
KHUT 161120Z 1612/1712 05009KT P6SM BKN100 
     FM162200 03007KT P6SM BKN150 
     FM170600 01006KT P6SM BKN250
       
KHVR 161120Z 1612/1712 VRB03KT P6SM SCT090 
     FM161800 34009G17KT P6SM FEW060 BKN090 
     FM170100 01009KT P6SM FEW100 
     FM170400 VRB06KT P6SM FEW100
       
KHYA 161122Z 1612/1712 22010G18KT P6SM VCSH OVC090 
     FM161500 22012G20KT P6SM OVC110 
     FM161900 22013G22KT P6SM VCSH OVC090 
     FM162300 20012G23KT 4SM -SHRA OVC035 
     FM170100 21010G21KT 4SM -SHRA BR OVC015 
     FM170500 24008KT 2SM BR VCSH OVC003 
     FM170800 28006KT 3SM BR OVC003 
     FM171100 32005KT 6SM BR BKN008
       
KHYR 161134Z 1612/1712 02006KT P6SM VCSH OVC090 
     FM161500 08008KT P6SM BKN100 
     FM170300 VRB03KT P6SM BKN150
       
KHYS 161120Z 1612/1712 VRB06KT P6SM SCT250
       
KHUL 161125Z 1612/1712 27006KT P6SM FEW025